Time;durP1;ratioP1;P1;durP2;ratioP2;P2;SDS_P1;SDS_P2;PMS_P1;PMS_P2;Temp;Humidity;BMP_temperature;BMP_pressure;BME280_temperature;BME280_humidity;BME280_pressure;Samples;Min_cycle;Max_cycle;Signal;HPM_P1;HPM_P2
2020/12/10 00:00:14;;;;;;;74.20;35.53;;;2.00;99.90;;;-0.46;100.00;99859.63;5028071;27;100471;-62
2020/12/10 00:02:40;;;;;;;76.57;37.53;;;2.10;99.90;;;-0.46;100.00;99857.00;5018884;27;100199;-62
2020/12/10 00:05:08;;;;;;;73.33;36.43;;;2.10;99.90;;;-0.44;100.00;99852.50;5008423;27;100267;-62
2020/12/10 00:07:36;;;;;;;82.13;38.47;;;1.90;99.90;;;-0.43;100.00;99839.25;5008671;27;100796;-63
2020/12/10 00:10:05;;;;;;;75.73;34.80;;;2.00;99.90;;;-0.44;100.00;99837.56;5018413;27;100464;-62
2020/12/10 00:12:31;;;;;;;77.63;34.97;;;3.00;99.90;;;-0.45;100.00;99838.50;5028787;27;100011;-62
2020/12/10 00:14:57;;;;;;;78.50;36.13;;;2.10;99.90;;;-0.47;100.00;99839.53;5027994;27;100159;-62
2020/12/10 00:17:26;;;;;;;76.73;37.30;;;2.00;99.90;;;-0.44;100.00;99827.06;5028897;27;100095;-62
2020/12/10 00:19:53;;;;;;;77.30;35.30;;;2.00;99.90;;;-0.45;100.00;99824.53;5012711;27;101177;-61
2020/12/10 00:22:20;;;;;;;69.80;32.53;;;1.90;99.90;;;-0.46;100.00;99821.06;5028843;27;100078;-62
2020/12/10 00:24:47;;;;;;;73.13;37.30;;;2.00;99.90;;;-0.46;100.00;99823.69;5028290;27;100207;-62
2020/12/10 00:27:15;;;;;;;79.00;36.77;;;2.00;99.90;;;-0.48;100.00;99804.53;5026375;27;100771;-63
2020/12/10 00:29:43;;;;;;;69.10;32.47;;;1.90;99.90;;;-0.49;100.00;99802.84;5027434;27;99921;-62
2020/12/10 00:32:13;;;;;;;70.50;33.67;;;1.90;99.90;;;-0.48;100.00;99806.31;5012413;27;100315;-62
2020/12/10 00:34:41;;;;;;;74.47;34.37;;;1.90;99.90;;;-0.50;100.00;99806.44;5027937;27;100197;-62
2020/12/10 00:37:08;;;;;;;69.17;31.97;;;2.00;99.90;;;-0.49;100.00;99800.22;5028311;27;101007;-63
2020/12/10 00:39:35;;;;;;;70.63;33.93;;;2.00;99.90;;;-0.53;100.00;99798.75;5028048;27;100470;-62
2020/12/10 00:42:02;;;;;;;66.07;31.83;;;2.00;99.90;;;-0.54;100.00;99809.38;5028967;27;100070;-62
2020/12/10 00:44:30;;;;;;;63.83;31.97;;;1.80;99.90;;;-0.55;100.00;99803.25;5010147;27;100627;-62
2020/12/10 00:46:56;;;;;;;74.73;36.30;;;1.90;99.90;;;-0.58;100.00;99807.88;5007870;27;100807;-62
2020/12/10 00:49:24;;;;;;;67.20;30.70;;;1.80;99.90;;;-0.58;100.00;99808.72;5017693;27;101220;-62
2020/12/10 00:51:52;;;;;;;64.07;29.37;;;1.80;99.90;;;-0.56;100.00;99806.84;5005342;27;100019;-61
2020/12/10 00:54:20;;;;;;;72.50;34.67;;;1.70;99.90;;;-0.53;100.00;99806.63;5008141;27;100290;-62
2020/12/10 00:56:48;;;;;;;65.93;32.57;;;1.70;99.90;;;-0.52;100.00;99792.56;5005827;27;102621;-64
2020/12/10 00:59:14;;;;;;;69.83;34.47;;;1.80;99.90;;;-0.55;100.00;99794.53;5007064;27;100713;-63
2020/12/10 01:01:43;;;;;;;74.27;35.37;;;1.80;99.90;;;-0.59;100.00;99790.41;5026455;27;100244;-62
2020/12/10 01:04:11;;;;;;;66.00;33.70;;;1.90;99.90;;;-0.56;100.00;99780.56;5027361;27;100043;-62
2020/12/10 01:06:38;;;;;;;73.10;33.50;;;1.80;99.90;;;-0.55;100.00;99794.53;5027331;27;101226;-62
2020/12/10 01:09:07;;;;;;;63.47;30.97;;;1.80;99.90;;;-0.57;100.00;99785.91;5015356;27;100436;-62
2020/12/10 01:11:34;;;;;;;72.87;37.20;;;1.80;99.90;;;-0.58;100.00;99784.22;5011595;27;100379;-62
2020/12/10 01:14:01;;;;;;;73.50;37.17;;;1.60;99.90;;;-0.59;100.00;99783.38;5008107;27;100040;-62
2020/12/10 01:16:28;;;;;;;70.27;34.57;;;1.80;99.90;;;-0.47;100.00;99779.94;5006540;27;100997;-62
2020/12/10 01:18:54;;;;;;;70.90;32.37;;;1.70;99.90;;;-0.59;100.00;99778.13;5007420;27;101336;-62
2020/12/10 01:21:29;;;;;;;78.27;32.20;;;1.60;99.90;;;-0.61;100.00;99773.91;5007167;27;100149;-62
2020/12/10 01:23:56;;;;;;;72.90;35.23;;;1.80;99.90;;;-0.61;100.00;99774.75;5008017;27;100086;-62
2020/12/10 01:26:24;;;;;;;75.63;35.73;;;1.70;99.90;;;-0.61;100.00;99777.38;5015208;27;100781;-63
2020/12/10 01:28:51;;;;;;;68.50;34.40;;;1.70;99.90;;;-0.60;100.00;99770.31;5016707;27;100872;-62
2020/12/10 01:31:18;;;;;;;80.07;36.77;;;1.70;99.90;;;-0.56;100.00;99762.16;5006589;27;100154;-62
2020/12/10 01:33:44;;;;;;;72.93;34.07;;;1.70;99.90;;;-0.54;100.00;99759.44;5007970;27;100228;-62
2020/12/10 01:36:19;;;;;;;73.27;33.90;;;1.70;99.90;;;-0.61;100.00;99760.75;5006893;27;100504;-62
2020/12/10 01:38:46;;;;;;;78.33;33.83;;;1.70;99.90;;;-0.66;100.00;99747.09;5007253;27;100386;-61
2020/12/10 01:41:13;;;;;;;77.67;33.33;;;1.60;99.90;;;-0.65;100.00;99746.16;5006318;27;100246;-62
2020/12/10 01:43:40;;;;;;;88.93;38.53;;;1.60;99.90;;;-0.65;100.00;99746.16;5007019;27;100204;-62
2020/12/10 01:46:07;;;;;;;80.90;35.17;;;1.60;99.90;;;-0.66;100.00;99749.72;5007092;27;100875;-62
2020/12/10 01:48:35;;;;;;;95.67;38.07;;;1.70;99.90;;;-0.68;100.00;99744.56;5006871;27;100895;-63
2020/12/10 01:51:03;;;;;;;89.20;40.37;;;1.50;99.90;;;-0.70;100.00;99749.06;5007018;27;100248;-62
2020/12/10 01:53:29;;;;;;;80.43;35.90;;;1.60;99.90;;;-0.68;100.00;99748.97;5009041;27;99997;-62
2020/12/10 01:55:56;;;;;;;81.43;36.87;;;1.60;99.90;;;-0.66;100.00;99744.47;5026296;27;101127;-64
2020/12/10 01:58:23;;;;;;;89.00;39.40;;;1.60;99.90;;;-0.68;100.00;99733.22;5026909;27;100851;-61
2020/12/10 02:00:51;;;;;;;85.83;36.73;;;1.70;99.90;;;-0.64;100.00;99742.59;5024785;27;100250;-63
2020/12/10 02:03:18;;;;;;;91.77;37.43;;;1.60;99.90;;;-0.64;100.00;99739.97;5027237;27;100216;-62
2020/12/10 02:05:46;;;;;;;83.53;37.93;;;1.60;99.90;;;-0.68;100.00;99749.81;5026155;27;100801;-62
2020/12/10 02:08:12;;;;;;;89.80;40.03;;;0.70;99.90;;;-0.69;100.00;99744.66;5021174;27;101362;-64
2020/12/10 02:10:40;;;;;;;100.03;40.13;;;1.60;99.90;;;-0.76;100.00;99746.88;5008821;27;100130;-62
2020/12/10 02:13:06;;;;;;;90.17;38.60;;;1.60;99.90;;;-0.74;100.00;99735.28;5027345;27;100111;-62
2020/12/10 02:15:33;;;;;;;90.73;39.90;;;1.60;99.90;;;-0.80;100.00;99737.50;5026363;27;100764;-62
2020/12/10 02:18:02;;;;;;;87.47;38.27;;;1.60;99.90;;;-0.79;100.00;99731.28;5024406;27;100977;-62
2020/12/10 02:20:28;;;;;;;96.10;39.53;;;1.50;99.90;;;-0.81;100.00;99727.91;5027233;27;100171;-62
2020/12/10 02:23:03;;;;;;;88.27;40.93;;;1.50;99.90;;;-0.81;100.00;99723.50;5021641;27;100789;-62
2020/12/10 02:25:31;;;;;;;93.10;39.10;;;1.60;99.90;;;-0.85;100.00;99724.66;5025637;27;100836;-62
2020/12/10 02:28:01;;;;;;;86.57;38.73;;;1.50;99.90;;;-0.85;100.00;99724.66;5026098;27;101110;-62
2020/12/10 02:30:29;;;;;;;84.50;38.93;;;1.50;99.90;;;-0.88;100.00;99724.88;5019194;27;99980;-61
2020/12/10 02:33:00;;;;;;;83.00;36.10;;;1.50;99.90;;;-0.88;100.00;99724.88;5006024;27;100348;-62
2020/12/10 02:35:29;;;;;;;84.27;36.73;;;0.90;99.90;;;-0.87;100.00;99723.09;5005525;27;100460;-62
2020/12/10 02:37:56;;;;;;;83.80;37.67;;;1.60;99.90;;;-0.83;100.00;99717.50;5006796;27;100756;-62
2020/12/10 02:40:25;;;;;;;86.33;35.73;;;1.50;99.90;;;-0.88;100.00;99710.88;5006537;27;100235;-62
2020/12/10 02:42:52;;;;;;;87.20;40.07;;;1.40;99.90;;;-0.89;100.00;99710.06;5006241;27;101198;-62
2020/12/10 02:45:20;;;;;;;76.20;33.60;;;1.50;99.90;;;-0.95;100.00;99702.56;5005318;27;100223;-62
2020/12/10 02:47:47;;;;;;;96.80;39.20;;;1.60;99.90;;;-0.94;100.00;99703.41;5006009;27;101102;-62
2020/12/10 02:50:13;;;;;;;81.60;36.30;;;1.50;99.90;;;-0.96;100.00;99707.91;5014985;27;100040;-62
2020/12/10 02:52:40;;;;;;;86.47;36.10;;;1.50;99.90;;;-0.96;100.00;99697.41;5026281;27;100033;-61
2020/12/10 02:55:07;;;;;;;87.37;37.50;;;1.40;99.90;;;-0.89;100.00;99696.06;5025733;27;100858;-62
2020/12/10 02:57:34;;;;;;;85.50;40.20;;;1.50;99.90;;;-0.89;100.00;99699.53;5024308;27;101811;-62
2020/12/10 03:00:03;;;;;;;72.00;32.53;;;1.40;99.90;;;-0.92;100.00;99707.63;5025037;27;100170;-63
2020/12/10 03:02:29;;;;;;;85.37;35.70;;;1.50;99.90;;;-1.01;100.00;99705.59;5024140;27;100007;-63
2020/12/10 03:04:56;;;;;;;80.90;35.87;;;1.30;99.90;;;-1.09;100.00;99697.34;5011320;27;100715;-62
2020/12/10 03:07:22;;;;;;;91.93;38.13;;;1.50;99.90;;;-1.08;100.00;99699.03;5006069;27;100396;-62
2020/12/10 03:09:48;;;;;;;84.57;35.30;;;1.30;99.90;;;-1.08;100.00;99696.41;5006071;27;99951;-63
2020/12/10 03:12:15;;;;;;;80.70;34.10;;;1.30;99.90;;;-1.12;100.00;99698.41;5006076;27;100026;-62
2020/12/10 03:14:42;;;;;;;85.33;36.97;;;1.30;99.90;;;-1.14;100.00;99683.69;5005739;27;101688;-62
2020/12/10 03:17:09;;;;;;;86.70;35.53;;;1.30;99.90;;;-1.10;100.00;99686.00;5006591;27;100528;-63
2020/12/10 03:19:38;;;;;;;79.53;33.73;;;1.30;99.90;;;-1.16;100.00;99688.19;5025206;27;100098;-62
2020/12/10 03:22:04;;;;;;;72.40;30.63;;;1.30;99.90;;;-1.18;100.00;99693.53;5026359;27;99912;-62
2020/12/10 03:24:31;;;;;;;76.53;33.20;;;1.20;99.90;;;-1.17;100.00;99692.59;5029131;27;101033;-62
2020/12/10 03:26:57;;;;;;;80.43;34.27;;;1.20;99.90;;;-1.11;100.00;99689.56;5029228;27;101032;-63
2020/12/10 03:29:27;;;;;;;80.90;35.37;;;1.20;99.90;;;-1.18;100.00;99684.81;5013856;27;99852;-62
2020/12/10 03:31:56;;;;;;;80.30;34.50;;;1.30;99.90;;;-1.21;100.00;99683.22;5017877;27;100269;-62
2020/12/10 03:34:23;;;;;;;80.43;33.40;;;1.20;99.90;;;-1.21;100.00;99679.75;5023674;27;103090;-62
2020/12/10 03:36:52;;;;;;;64.87;30.67;;;1.20;99.90;;;-1.22;100.00;99680.69;5009272;27;101558;-62
2020/12/10 03:39:23;;;;;;;80.57;35.50;;;1.20;99.90;;;-1.24;100.00;99672.94;5009646;27;100109;-63
2020/12/10 03:41:50;;;;;;;77.27;36.90;;;1.10;99.90;;;-1.24;100.00;99670.31;5009699;27;100356;-63
2020/12/10 03:44:17;;;;;;;78.97;34.03;;;1.00;99.90;;;-1.26;100.00;99677.44;5017257;27;101458;-62
2020/12/10 03:46:45;;;;;;;72.73;33.23;;;1.10;99.90;;;-1.23;100.00;99671.13;5013321;27;101179;-62
2020/12/10 03:49:12;;;;;;;77.00;33.07;;;1.20;99.90;;;-1.24;100.00;99670.31;5013435;27;100186;-62
2020/12/10 03:51:39;;;;;;;71.40;33.27;;;1.20;99.90;;;-1.25;100.00;99660.78;5009032;27;100259;-62
2020/12/10 03:54:06;;;;;;;76.23;34.97;;;1.10;99.90;;;-1.29;100.00;99658.44;5008820;27;100828;-62
2020/12/10 03:56:32;;;;;;;76.37;33.40;;;1.10;99.90;;;-1.30;100.00;99665.47;5008245;27;101283;-61
2020/12/10 03:58:59;;;;;;;63.53;30.20;;;1.50;99.90;;;-1.31;100.00;99666.41;5018740;27;100194;-61
2020/12/10 04:01:26;;;;;;;76.97;33.47;;;1.10;99.90;;;-1.31;100.00;99666.41;5022756;27;100032;-60
2020/12/10 04:03:53;;;;;;;72.57;33.37;;;1.10;99.90;;;-1.34;100.00;99678.88;5028620;27;101322;-61
2020/12/10 04:06:23;;;;;;;81.90;33.47;;;1.10;99.90;;;-1.31;100.00;99683.94;5019283;27;100660;-60
2020/12/10 04:08:50;;;;;;;72.13;34.43;;;1.10;99.90;;;-1.37;100.00;99677.31;5028997;27;100007;-60
2020/12/10 04:11:17;;;;;;;73.13;32.30;;;1.10;99.90;;;-1.35;100.00;99664.91;5015531;27;100353;-62
2020/12/10 04:13:45;;;;;;;63.73;29.67;;;1.00;99.90;;;-1.36;100.00;99680.78;5016315;27;101231;-61
2020/12/10 04:16:12;;;;;;;70.33;31.47;;;1.60;99.90;;;-1.36;100.00;99680.78;5028627;27;100299;-61
2020/12/10 04:18:41;;;;;;;69.47;31.87;;;1.00;99.90;;;-1.34;100.00;99676.25;5028941;27;100019;-62
2020/12/10 04:21:08;;;;;;;64.03;30.57;;;1.00;99.90;;;-1.38;100.00;99680.88;5028675;27;100472;-61
2020/12/10 04:23:35;;;;;;;63.30;27.80;;;0.90;99.90;;;-1.41;100.00;99677.59;5020345;27;101650;-62
2020/12/10 04:26:02;;;;;;;66.13;31.73;;;0.90;99.90;;;-1.40;100.00;99671.41;5007930;27;100416;-61
2020/12/10 04:28:29;;;;;;;65.40;33.40;;;1.00;99.90;;;-1.34;100.00;99673.63;5008890;27;99960;-60
2020/12/10 04:30:55;;;;;;;54.97;25.60;;;0.90;99.90;;;-1.45;100.00;99675.16;5016157;27;100208;-60
2020/12/10 04:33:22;;;;;;;62.77;30.57;;;0.90;99.90;;;-1.41;100.00;99672.34;5027714;27;101478;-60
2020/12/10 04:35:48;;;;;;;67.13;31.03;;;0.90;99.90;;;-1.44;100.00;99683.84;5025243;27;101805;-63
2020/12/10 04:38:15;;;;;;;62.90;32.30;;;0.80;99.90;;;-1.42;100.00;99681.97;5020333;27;100223;-61
2020/12/10 04:40:42;;;;;;;61.20;29.33;;;0.70;99.90;;;-1.42;100.00;99678.53;5008471;27;100347;-61
2020/12/10 04:43:10;;;;;;;66.00;30.27;;;0.90;99.90;;;-1.42;100.00;99670.66;5008223;27;101309;-61
2020/12/10 04:45:37;;;;;;;61.23;30.13;;;0.90;99.90;;;-1.44;100.00;99676.00;5007702;27;100312;-61
2020/12/10 04:48:04;;;;;;;66.83;33.20;;;0.90;99.90;;;-1.38;100.00;99678.25;5008215;27;100000;-61
2020/12/10 04:50:34;;;;;;;63.10;29.33;;;0.90;99.90;;;-1.39;100.00;99673.94;5008789;27;100024;-63
2020/12/10 04:53:01;;;;;;;63.13;30.70;;;0.90;99.90;;;-1.41;100.00;99670.56;5008335;27;101275;-59
2020/12/10 04:55:28;;;;;;;59.83;31.30;;;0.90;99.90;;;-1.33;100.00;99667.44;5027442;27;100578;-61
2020/12/10 04:57:55;;;;;;;63.60;29.37;;;1.00;99.90;;;-1.36;100.00;99672.91;5026755;27;100354;-60
2020/12/10 05:00:22;;;;;;;65.00;31.87;;;0.80;99.90;;;-1.34;100.00;99677.09;5026814;27;100297;-61
2020/12/10 05:02:49;;;;;;;65.70;31.40;;;0.80;99.90;;;-1.35;100.00;99674.56;5019845;27;101385;-60
2020/12/10 05:05:24;;;;;;;66.20;31.73;;;0.90;99.90;;;-1.32;100.00;99667.34;5017651;27;100219;-61
2020/12/10 05:07:51;;;;;;;68.17;30.67;;;1.00;99.90;;;-1.32;100.00;99669.97;5027942;27;100186;-63
2020/12/10 05:10:21;;;;;;;72.53;33.97;;;0.80;99.90;;;-1.31;100.00;99674.28;5028364;27;100092;-60
2020/12/10 05:12:48;;;;;;;67.27;30.47;;;1.00;99.90;;;-1.35;100.00;99671.94;5027503;27;101168;-62
2020/12/10 05:15:31;;;;;;;65.00;28.20;;;1.00;99.90;;;-1.39;100.00;99673.94;5028395;27;100549;-61
2020/12/10 05:18:05;;;;;;;70.07;33.97;;;0.90;99.90;;;-1.39;100.00;99667.84;5025153;27;100026;-62
2020/12/10 05:20:39;;;;;;;61.90;30.40;;;0.90;99.90;;;-1.38;100.00;99669.53;5006664;27;100146;-62
2020/12/10 05:23:08;;;;;;;67.43;31.23;;;1.00;99.90;;;-1.34;100.00;99671.00;5006151;27;100794;-62
2020/12/10 05:25:46;;;;;;;61.83;31.63;;;0.90;99.90;;;-1.36;100.00;99665.84;5007166;27;101162;-62
2020/12/10 05:28:13;;;;;;;65.20;29.80;;;0.90;99.90;;;-1.43;100.00;99656.69;5011899;27;100371;-62
2020/12/10 05:30:43;;;;;;;71.50;30.57;;;0.90;99.90;;;-1.45;100.00;99656.78;5020811;27;100170;-62
2020/12/10 05:33:11;;;;;;;69.90;31.60;;;0.90;99.90;;;-1.45;100.00;99666.44;5006297;27;101565;-62
2020/12/10 05:35:37;;;;;;;68.77;32.53;;;0.90;99.90;;;-1.49;100.00;99662.34;5020996;27;103550;-62
2020/12/10 05:38:10;;;;;;;64.73;28.37;;;1.00;99.90;;;-1.52;100.00;99660.75;5027563;27;99971;-62
2020/12/10 05:40:37;;;;;;;69.87;31.03;;;0.90;99.90;;;-1.53;100.00;99661.69;5027811;27;100041;-62
2020/12/10 05:43:05;;;;;;;65.73;32.20;;;0.90;99.90;;;-1.48;100.00;99661.38;5024489;27;101611;-62
2020/12/10 05:45:37;;;;;;;69.67;31.07;;;0.80;99.90;;;-1.53;100.00;99659.06;5021383;27;100288;-62
2020/12/10 05:48:05;;;;;;;68.40;30.33;;;0.90;99.90;;;-1.58;100.00;99658.50;5026669;27;100037;-62
2020/12/10 05:50:34;;;;;;;66.33;30.40;;;0.90;99.90;;;-1.55;100.00;99653.06;5027130;27;100031;-62
2020/12/10 05:53:10;;;;;;;67.40;30.63;;;1.60;99.90;;;-1.61;100.00;99645.59;5026901;27;100829;-62
2020/12/10 05:55:38;;;;;;;64.13;29.73;;;0.70;99.90;;;-1.65;100.00;99646.72;5026803;27;101852;-62
2020/12/10 05:58:06;;;;;;;60.33;28.33;;;0.80;99.90;;;-1.70;100.00;99648.78;5024369;27;100059;-62
2020/12/10 06:00:33;;;;;;;64.27;30.57;;;0.90;99.90;;;-1.73;100.00;99646.34;5006150;27;99926;-62
2020/12/10 06:03:04;;;;;;;70.97;29.93;;;0.80;99.90;;;-1.72;100.00;99657.66;5006598;27;101106;-61
2020/12/10 06:05:32;;;;;;;59.77;28.93;;;0.90;99.90;;;-1.78;100.00;99653.66;5006569;27;101206;-61
2020/12/10 06:08:04;;;;;;;64.37;29.93;;;0.70;99.90;;;-1.75;100.00;99674.47;5006607;27;100105;-62
2020/12/10 06:10:39;;;;;;;56.40;26.57;;;0.70;99.90;;;-1.76;100.00;99671.94;5006961;27;100141;-62
2020/12/10 06:13:07;;;;;;;57.83;29.97;;;0.80;99.90;;;-1.79;100.00;99675.59;5015865;27;101081;-60
2020/12/10 06:15:34;;;;;;;60.47;28.00;;;-0.10;99.90;;;-1.81;100.00;99669.59;5027123;27;100692;-62
2020/12/10 06:18:10;;;;;;;62.80;28.73;;;0.70;99.90;;;-1.78;100.00;99664.16;5026596;27;100041;-62
2020/12/10 06:20:42;;;;;;;57.13;26.27;;;0.70;99.90;;;-1.81;100.00;99659.94;5026986;27;100001;-61
2020/12/10 06:23:35;;;;;;;60.23;27.80;;;0.60;99.90;;;-1.82;100.00;99662.66;5024010;27;103021;-62
2020/12/10 06:26:38;;;;;;;60.63;29.13;;;0.70;99.90;;;-1.74;100.00;99659.56;5015691;27;101219;-62
2020/12/10 06:29:22;;;;;;;53.07;27.10;;;0.40;99.90;;;-1.82;100.00;99657.41;5027352;27;99999;-63
2020/12/10 06:32:11;;;;;;;60.23;27.37;;;0.60;99.90;;;-1.80;100.00;99663.41;5026871;27;100051;-63
2020/12/10 06:34:42;;;;;;;51.07;24.33;;;0.70;99.90;;;-1.86;100.00;99672.50;5026076;27;100749;-60
2020/12/10 06:37:26;;;;;;;51.37;26.40;;;0.70;99.90;;;-1.76;100.00;99667.53;5026551;27;100446;-62
2020/12/10 06:40:05;;;;;;;45.10;23.77;;;0.60;99.90;;;-1.86;100.00;99674.28;5025681;27;100024;-62
2020/12/10 06:42:47;;;;;;;50.33;25.70;;;0.60;99.90;;;-1.88;100.00;99678.78;5026841;27;100116;-62
2020/12/10 06:45:25;;;;;;;42.67;22.17;;;0.60;99.90;;;-1.87;100.00;99689.19;5026260;27;101543;-62
2020/12/10 06:47:52;;;;;;;59.00;27.57;;;0.70;99.90;;;-1.81;100.00;99669.59;5025332;27;101346;-62
2020/12/10 06:50:24;;;;;;;48.53;23.50;;;0.60;99.90;;;-1.83;100.00;99680.16;5026457;27;100139;-63
2020/12/10 06:53:17;;;;;;;47.17;23.97;;;0.40;99.90;;;-1.87;100.00;99685.72;5026811;27;99996;-62
2020/12/10 06:56:14;;;;;;;49.87;25.70;;;0.50;99.90;;;-1.87;100.00;99690.97;5007866;27;101716;-62
2020/12/10 06:58:56;;;;;;;51.97;24.73;;;0.60;99.90;;;-1.90;100.00;99684.13;5008382;27;100491;-62
2020/12/10 07:01:29;;;;;;;55.00;27.40;;;0.50;99.90;;;-1.87;100.00;99680.47;5009591;27;100144;-63
2020/12/10 07:04:21;;;;;;;52.20;26.50;;;0.50;99.90;;;-1.88;100.00;99687.50;5009070;27;100179;-62
2020/12/10 07:07:14;;;;;;;56.57;29.40;;;0.50;99.90;;;-1.90;100.00;99686.75;5003741;27;101729;-63
2020/12/10 07:09:53;;;;;;;58.73;28.00;;;0.50;99.90;;;-1.93;100.00;99686.06;5006183;27;100943;-62
2020/12/10 07:12:21;;;;;;;52.47;26.90;;;0.50;99.90;;;-1.90;100.00;99683.28;5006670;27;99941;-62
2020/12/10 07:14:48;;;;;;;55.07;27.07;;;0.50;99.90;;;-1.94;100.00;99684.38;5006838;27;99981;-62
2020/12/10 07:17:14;;;;;;;49.60;24.70;;;0.50;99.90;;;-1.88;100.00;99684.03;5006358;27;100913;-63
2020/12/10 07:19:41;;;;;;;50.03;25.53;;;0.50;99.90;;;-2.01;100.00;99678.69;5004635;27;101026;-62
2020/12/10 07:22:07;;;;;;;52.17;26.47;;;0.60;99.90;;;-1.98;100.00;99675.03;5012535;27;100450;-62
2020/12/10 07:24:35;;;;;;;52.30;25.43;;;-0.60;99.90;;;-1.98;100.00;99683.72;5028035;27;100104;-61
2020/12/10 07:27:01;;;;;;;47.53;22.57;;;0.50;99.90;;;-2.01;100.00;99686.56;5027229;27;100846;-62
2020/12/10 07:29:28;;;;;;;52.73;27.33;;;0.50;99.90;;;-2.00;100.00;99690.88;5026577;27;101898;-62
2020/12/10 07:31:54;;;;;;;53.87;26.90;;;-1.20;99.90;;;-2.01;100.00;99696.19;5026566;27;100055;-63
2020/12/10 07:34:20;;;;;;;41.20;22.03;;;0.50;99.90;;;-2.07;100.00;99699.19;5013243;27;100334;-61
2020/12/10 07:36:48;;;;;;;51.33;26.30;;;0.30;99.90;;;-1.98;100.00;99693.41;5006006;27;100635;-62
2020/12/10 07:39:27;;;;;;;43.60;22.07;;;0.30;99.90;;;-2.01;100.00;99691.81;5005865;27;101364;-62
2020/12/10 07:41:54;;;;;;;50.13;24.67;;;-0.20;99.90;;;-2.02;100.00;99697.13;5006317;27;100127;-61
2020/12/10 07:44:30;;;;;;;49.10;24.40;;;0.50;99.90;;;-2.03;100.00;99695.44;5006645;27;100157;-62
2020/12/10 07:46:57;;;;;;;44.80;22.90;;;0.50;99.90;;;-2.03;100.00;99698.06;5006415;27;100775;-63
2020/12/10 07:49:26;;;;;;;80.77;51.00;;;0.50;99.90;;;-2.01;100.00;99702.28;5007583;27;100647;-63
2020/12/10 07:52:02;;;;;;;54.47;26.70;;;0.30;99.90;;;-2.03;100.00;99698.91;5006876;27;99929;-62
2020/12/10 07:54:44;;;;;;;163.97;146.80;;;0.50;99.90;;;-1.97;100.00;99698.53;5006528;27;100219;-61
2020/12/10 07:57:29;;;;;;;179.67;160.70;;;0.60;99.90;;;-2.01;100.00;99699.66;5002614;27;103114;-60
2020/12/10 08:00:03;;;;;;;55.40;28.03;;;0.50;99.90;;;-1.99;100.00;99696.97;5005435;27;100497;-62
2020/12/10 08:02:52;;;;;;;66.27;41.10;;;0.60;99.90;;;-1.99;100.00;99691.72;5004223;27;100111;-62
2020/12/10 08:05:20;;;;;;;71.70;40.17;;;0.50;99.90;;;-1.98;100.00;99696.84;5006554;27;100423;-64
2020/12/10 08:07:48;;;;;;;48.60;27.70;;;0.50;99.90;;;-2.01;100.00;99690.97;5005894;27;101231;-62
2020/12/10 08:10:22;;;;;;;57.43;26.03;;;0.40;99.90;;;-2.02;100.00;99692.75;5004758;27;100748;-63
2020/12/10 08:13:12;;;;;;;224.07;158.80;;;0.50;99.90;;;-1.97;100.00;99695.06;5005448;27;100173;-62
2020/12/10 08:15:40;;;;;;;54.53;28.90;;;0.40;99.90;;;-1.97;100.00;99695.06;5012049;27;100276;-62
2020/12/10 08:18:09;;;;;;;56.20;29.83;;;0.40;99.90;;;-1.96;100.00;99692.34;5025765;27;101079;-63
2020/12/10 08:20:41;;;;;;;51.00;26.63;;;0.50;99.90;;;-1.94;100.00;99698.34;5026400;27;100690;-62
2020/12/10 08:23:08;;;;;;;55.30;24.63;;;0.50;99.90;;;-2.00;100.00;99685.63;5025563;27;100273;-62
2020/12/10 08:25:35;;;;;;;51.00;26.80;;;0.50;99.90;;;-1.90;100.00;99691.13;5026467;27;100082;-62
2020/12/10 08:28:05;;;;;;;75.80;52.33;;;0.40;99.90;;;-1.83;100.00;99679.31;5026119;27;100936;-63
2020/12/10 08:30:33;;;;;;;60.37;28.23;;;0.50;99.90;;;-1.89;100.00;99682.34;5025987;27;100397;-62
2020/12/10 08:33:00;;;;;;;53.60;24.17;;;0.70;99.90;;;-1.94;100.00;99687.00;5026043;27;100098;-62
2020/12/10 08:35:29;;;;;;;56.43;29.07;;;0.60;99.90;;;-1.90;100.00;99685.91;5025993;27;100263;-62
2020/12/10 08:37:55;;;;;;;60.83;36.40;;;0.60;99.90;;;-1.81;100.00;99687.94;5026031;27;100804;-61
2020/12/10 08:40:26;;;;;;;52.70;27.90;;;0.70;99.90;;;-1.79;100.00;99686.06;5026453;27;100042;-62
2020/12/10 08:42:53;;;;;;;218.77;155.23;;;0.70;99.90;;;-1.79;100.00;99680.81;5024544;27;100231;-62
2020/12/10 08:45:32;;;;;;;404.60;314.33;;;0.80;99.90;;;-1.75;100.00;99687.59;5006133;27;99742;-61
2020/12/10 08:48:00;;;;;;;122.37;85.77;;;0.70;99.90;;;-1.76;100.00;99685.91;5004748;27;100893;-62
2020/12/10 08:50:28;;;;;;;50.57;25.00;;;0.70;99.90;;;-1.90;100.00;99685.91;5005956;27;100271;-62
2020/12/10 08:53:06;;;;;;;78.83;57.03;;;0.80;99.90;;;-1.80;100.00;99692.25;5005476;27;100103;-61
2020/12/10 08:55:39;;;;;;;55.47;32.10;;;0.70;99.90;;;-1.88;100.00;99684.88;5006024;27;100582;-62
2020/12/10 08:58:05;;;;;;;366.00;307.77;;;0.70;99.90;;;-1.65;100.00;99677.34;5004068;27;101245;-62
2020/12/10 09:00:37;;;;;;;93.30;58.50;;;0.60;99.90;;;-1.69;100.00;99683.72;5004122;27;101282;-61
2020/12/10 09:03:04;;;;;;;225.80;177.40;;;0.60;99.90;;;-1.76;100.00;99683.28;5005461;27;100192;-61
2020/12/10 09:05:31;;;;;;;90.13;53.13;;;0.60;99.90;;;-1.67;100.00;99684.47;5003050;27;100264;-63
2020/12/10 09:07:57;;;;;;;59.80;30.47;;;0.70;99.90;;;-1.76;100.00;99687.66;5004670;27;100618;-63
2020/12/10 09:10:28;;;;;;;90.27;49.50;;;0.80;99.90;;;-1.78;100.00;99677.28;5005289;27;100189;-63
2020/12/10 09:12:55;;;;;;;108.53;62.80;;;0.90;99.90;;;-1.73;100.00;99682.25;5023413;27;100429;-62
2020/12/10 09:15:21;;;;;;;97.17;68.73;;;0.90;99.90;;;-1.82;100.00;99678.38;5025885;27;100244;-62
2020/12/10 09:17:49;;;;;;;55.90;26.93;;;0.80;99.90;;;-1.79;100.00;99680.00;5024702;27;101293;-62
2020/12/10 09:20:15;;;;;;;67.97;36.80;;;0.90;99.90;;;-1.75;100.00;99676.25;5024318;27;100735;-63
2020/12/10 09:22:42;;;;;;;53.07;29.27;;;0.80;99.90;;;-1.65;100.00;99670.31;5025361;27;100081;-62
2020/12/10 09:25:08;;;;;;;154.37;138.60;;;0.60;99.90;;;-1.65;100.00;99665.06;5025027;27;100192;-62
2020/12/10 09:27:35;;;;;;;60.37;32.10;;;0.70;99.90;;;-1.76;100.00;99658.81;5024747;27;100998;-62
2020/12/10 09:30:03;;;;;;;62.97;31.93;;;0.80;99.90;;;-1.74;100.00;99660.41;5025019;27;101207;-62
2020/12/10 09:32:33;;;;;;;57.37;30.33;;;0.80;99.90;;;-1.68;100.00;99656.56;5025794;27;99987;-62
2020/12/10 09:35:01;;;;;;;66.90;34.73;;;0.70;99.90;;;-1.71;100.00;99654.94;5024593;27;100192;-62
2020/12/10 09:37:27;;;;;;;75.53;45.47;;;0.80;99.90;;;-1.58;100.00;99644.53;5023193;27;100838;-62
2020/12/10 09:39:54;;;;;;;333.27;219.33;;;0.70;99.90;;;-1.60;100.00;99636.75;5004308;27;101159;-62
2020/12/10 09:42:20;;;;;;;82.27;50.53;;;0.80;99.90;;;-1.67;100.00;99634.63;5005120;27;100202;-62
2020/12/10 09:44:47;;;;;;;59.93;31.53;;;0.90;99.90;;;-1.68;100.00;99638.19;5004211;27;100066;-62
2020/12/10 09:47:13;;;;;;;62.30;31.73;;;0.70;99.90;;;-1.60;100.00;99635.91;5004300;27;101237;-62
2020/12/10 09:49:40;;;;;;;87.47;52.80;;;1.10;99.90;;;-1.60;100.00;99623.63;5003696;27;100482;-63
2020/12/10 09:52:08;;;;;;;73.13;40.27;;;0.90;99.90;;;-1.67;100.00;99624.97;5005156;27;100574;-63
2020/12/10 09:54:47;;;;;;;62.23;30.53;;;0.80;99.90;;;-1.63;100.00;99615.16;5004833;27;99997;-62
2020/12/10 09:57:25;;;;;;;64.37;31.67;;;1.00;99.90;;;-1.63;100.00;99618.63;5004069;27;101532;-61
2020/12/10 09:59:52;;;;;;;72.13;42.80;;;1.00;99.90;;;-1.53;100.00;99611.84;5003512;27;100383;-62
2020/12/10 10:02:19;;;;;;;99.27;73.10;;;1.00;99.90;;;-1.58;100.00;99613.06;5004456;27;100132;-63
2020/12/10 10:04:45;;;;;;;129.90;96.10;;;1.10;99.90;;;-1.48;100.00;99614.13;5004590;27;100294;-62
2020/12/10 10:07:13;;;;;;;74.20;46.43;;;1.00;99.90;;;-1.57;100.00;99620.81;5017353;27;101565;-62
2020/12/10 10:09:40;;;;;;;79.40;49.20;;;1.10;99.90;;;-1.54;100.00;99615.41;5017176;27;101124;-62